createdAt,value
2019-04-27T00:04:16.252Z,18.40
2019-04-27T00:09:50.284Z,15.67
2019-04-27T00:15:13.199Z,16.70
2019-04-27T00:20:53.961Z,16.40
2019-04-27T00:26:18.608Z,19.17
2019-04-27T00:31:43.625Z,18.63
2019-04-27T00:37:45.714Z,19.73
2019-04-27T00:43:09.419Z,17.47
2019-04-27T00:48:33.512Z,18.03
2019-04-27T00:53:58.814Z,17.87
2019-04-27T00:59:40.878Z,17.73
2019-04-27T01:05:13.008Z,17.23
2019-04-27T01:10:36.943Z,18.90
2019-04-27T01:16:00.945Z,15.90
2019-04-27T01:21:24.607Z,15.87
2019-04-27T01:27:00.067Z,16.93
2019-04-27T01:32:25.500Z,20.67
2019-04-27T01:37:49.929Z,21.90
2019-04-27T01:43:14.129Z,21.67
2019-04-27T01:48:38.834Z,23.30
2019-04-27T01:54:03.350Z,21.77
2019-04-27T01:59:28.289Z,21.20
2019-04-27T02:05:22.160Z,21.50
2019-04-27T02:10:47.166Z,21.20
2019-04-27T02:16:12.007Z,19.47
2019-04-27T02:21:35.695Z,19.07
2019-04-27T02:27:00.516Z,17.60
2019-04-27T02:32:31.997Z,17.23
2019-04-27T02:37:56.345Z,15.00
2019-04-27T02:43:25.662Z,13.80
2019-04-27T02:48:59.374Z,13.97
2019-04-27T02:54:15.496Z,13.30
2019-04-27T02:59:40.553Z,12.13
2019-04-27T03:05:05.917Z,11.93
2019-04-27T03:10:31.617Z,11.53
2019-04-27T03:16:05.957Z,12.43
2019-04-27T03:21:49.559Z,10.43
2019-04-27T03:27:16.576Z,10.47
2019-04-27T03:32:42.843Z,10.20
2019-04-27T03:38:06.348Z,10.77
2019-04-27T03:43:31.088Z,11.07
2019-04-27T03:48:55.153Z,11.50
2019-04-27T03:54:40.995Z,11.80
2019-04-27T04:00:15.455Z,13.37
2019-04-27T04:05:40.704Z,12.07
2019-04-27T04:11:12.770Z,12.77
2019-04-27T04:17:02.286Z,14.23
2019-04-27T04:22:23.280Z,13.53
2019-04-27T04:27:46.699Z,12.97
2019-04-27T04:33:11.213Z,13.47
2019-04-27T04:38:35.362Z,14.20
2019-04-27T04:44:12.196Z,14.03
2019-04-27T04:49:34.536Z,13.47
2019-04-27T04:54:59.399Z,15.10
2019-04-27T05:00:24.340Z,17.87
2019-04-27T05:05:50.127Z,15.77
2019-04-27T05:11:15.184Z,16.43
2019-04-27T05:16:40.874Z,16.93
2019-04-27T05:22:05.796Z,16.97
2019-04-27T05:27:31.032Z,18.83
2019-04-27T05:32:54.711Z,20.70
2019-04-27T05:38:19.273Z,22.87
2019-04-27T05:43:49.542Z,22.67
2019-04-27T05:49:44.947Z,23.57
2019-04-27T05:55:10.518Z,23.80
2019-04-27T06:00:34.510Z,24.67
2019-04-27T06:06:01.646Z,23.70
2019-04-27T06:11:25.741Z,21.27
2019-04-27T06:16:51.327Z,22.80
2019-04-27T06:22:14.995Z,22.30
2019-04-27T06:27:39.671Z,21.90
2019-04-27T06:33:03.541Z,21.93
2019-04-27T06:38:27.291Z,20.77
2019-04-27T06:43:52.680Z,23.43
2019-04-27T06:49:17.344Z,25.17
2019-04-27T06:54:41.513Z,26.47
2019-04-27T07:00:06.567Z,26.53
2019-04-27T07:05:31.100Z,26.87
2019-04-27T07:10:56.052Z,28.10
2019-04-27T07:16:19.750Z,28.57
2019-04-27T07:21:44.364Z,26.87
2019-04-27T07:27:09.893Z,24.70
2019-04-27T07:32:35.040Z,23.17
2019-04-27T07:37:58.994Z,22.70
2019-04-27T07:43:31.968Z,21.07
2019-04-27T07:48:55.643Z,21.03
2019-04-27T07:54:20.366Z,21.90
2019-04-27T07:59:44.701Z,23.90
2019-04-27T08:05:09.496Z,23.07
2019-04-27T08:10:34.450Z,23.60
2019-04-27T08:15:59.152Z,22.77
2019-04-27T08:21:23.579Z,22.63
2019-04-27T08:26:54.604Z,23.70
2019-04-27T08:32:23.123Z,25.20
2019-04-27T08:37:49.265Z,24.83
2019-04-27T08:43:13.945Z,27.03
2019-04-27T08:48:39.320Z,26.30
2019-04-27T08:54:05.236Z,25.85
2019-04-27T08:59:29.884Z,27.17
2019-04-27T09:04:54.099Z,26.95
2019-04-27T09:10:26.558Z,29.92
2019-04-27T09:16:05.243Z,29.65
2019-04-27T09:21:48.574Z,30.15
2019-04-27T09:27:12.537Z,27.90
2019-04-27T09:32:38.409Z,29.35
2019-04-27T09:38:03.186Z,29.60
2019-04-27T09:43:26.757Z,28.50
2019-04-27T09:48:51.483Z,28.30
2019-04-27T09:54:16.700Z,27.98
2019-04-27T09:59:40.861Z,27.67
2019-04-27T10:05:06.055Z,26.00
2019-04-27T10:10:29.831Z,21.12
2019-04-27T10:15:54.574Z,21.17
2019-04-27T10:21:19.443Z,18.70
2019-04-27T10:26:44.199Z,17.35
2019-04-27T10:32:09.426Z,20.30
2019-04-27T10:37:33.019Z,19.20
2019-04-27T10:42:57.465Z,15.63
2019-04-27T10:48:22.442Z,14.50
2019-04-27T10:53:47.156Z,18.87
2019-04-27T10:59:11.383Z,16.10
2019-04-27T11:04:50.711Z,17.55
2019-04-27T11:10:16.316Z,18.15
2019-04-27T11:15:40.481Z,15.38
2019-04-27T11:21:05.801Z,12.68
2019-04-27T11:26:30.123Z,15.05
2019-04-27T11:31:55.631Z,13.88
2019-04-27T11:37:24.640Z,13.03
2019-04-27T11:42:49.592Z,13.30
2019-04-27T11:48:16.014Z,12.63
2019-04-27T11:53:39.771Z,11.93
2019-04-27T11:59:04.553Z,11.40
2019-04-27T12:04:28.974Z,10.10
2019-04-27T12:09:52.742Z,10.58
2019-04-27T12:15:17.811Z,10.32
2019-04-27T12:20:41.862Z,10.28
2019-04-27T12:26:05.997Z,9.60
2019-04-27T12:31:33.697Z,10.60
2019-04-27T12:36:57.745Z,10.63
2019-04-27T12:42:22.442Z,8.73
2019-04-27T12:47:47.800Z,9.75
2019-04-27T12:53:16.997Z,10.10
2019-04-27T12:59:04.984Z,9.43
2019-04-27T13:04:28.904Z,10.03
2019-04-27T13:09:53.451Z,11.53
2019-04-27T13:15:18.167Z,11.08
2019-04-27T13:20:43.230Z,10.13
2019-04-27T13:26:07.878Z,7.15
2019-04-27T13:31:31.733Z,4.97
2019-04-27T13:36:57.854Z,4.00
2019-04-27T13:42:22.007Z,3.05
2019-04-27T13:48:03.771Z,2.72
2019-04-27T13:53:28.694Z,2.60
2019-04-27T13:58:52.524Z,2.63
2019-04-27T14:04:16.379Z,2.33
2019-04-27T14:09:40.502Z,2.25
2019-04-27T14:15:04.541Z,2.20
2019-04-27T14:20:28.815Z,2.92
2019-04-27T14:25:53.620Z,2.60
2019-04-27T14:31:18.927Z,3.60
2019-04-27T14:36:42.737Z,3.40
2019-04-27T14:42:08.338Z,5.37
2019-04-27T14:47:33.617Z,3.52
2019-04-27T14:53:01.633Z,3.50
2019-04-27T14:58:22.999Z,4.87
2019-04-27T15:03:47.105Z,5.75
2019-04-27T15:09:13.359Z,5.60
2019-04-27T15:14:38.797Z,6.65
2019-04-27T15:20:07.742Z,5.80
2019-04-27T15:25:35.102Z,4.83
2019-04-27T15:31:23.523Z,6.20
2019-04-27T15:37:07.950Z,5.03
2019-04-27T15:42:41.554Z,3.00
2019-04-27T15:48:03.400Z,2.72
2019-04-27T15:53:28.408Z,2.12
2019-04-27T15:58:55.763Z,4.83
2019-04-27T16:04:19.559Z,5.78
2019-04-27T16:09:44.528Z,5.65
2019-04-27T16:15:08.646Z,5.70
2019-04-27T16:20:34.042Z,5.25
2019-04-27T16:26:00.597Z,4.83
2019-04-27T16:31:29.171Z,5.42
2019-04-27T16:36:50.505Z,4.97
2019-04-27T16:42:16.105Z,5.22
2019-04-27T16:47:40.432Z,5.55
2019-04-27T16:53:05.084Z,5.60
2019-04-27T16:58:31.875Z,6.17
2019-04-27T17:03:58.877Z,5.30
2019-04-27T17:09:22.579Z,4.92
2019-04-27T17:15:05.878Z,4.65
2019-04-27T17:20:30.329Z,4.53
2019-04-27T17:25:57.165Z,5.12
2019-04-27T17:31:24.224Z,4.65
2019-04-27T17:36:54.470Z,4.62
2019-04-27T17:42:14.242Z,4.75
2019-04-27T17:47:38.904Z,6.37
2019-04-27T17:53:03.142Z,7.12
2019-04-27T17:58:28.651Z,6.85
2019-04-27T18:04:00.092Z,6.17
2019-04-27T18:09:19.310Z,5.80
2019-04-27T18:14:43.429Z,5.95
2019-04-27T18:20:11.845Z,7.80
2019-04-27T18:25:43.553Z,8.53
2019-04-27T18:31:11.427Z,8.60
2019-04-27T18:36:37.891Z,7.43
2019-04-27T18:42:02.870Z,7.13
2019-04-27T18:47:27.024Z,6.70
2019-04-27T18:52:55.010Z,6.57
2019-04-27T18:58:19.370Z,6.83
2019-04-27T19:03:44.076Z,7.50
2019-04-27T19:09:09.138Z,6.90
2019-04-27T19:14:33.741Z,6.30
2019-04-27T19:19:57.403Z,8.23
2019-04-27T19:25:42.410Z,6.07
2019-04-27T19:31:09.712Z,3.07
2019-04-27T19:36:33.459Z,2.40
2019-04-27T19:42:03.445Z,2.20
2019-04-27T19:47:23.916Z,2.47
2019-04-27T19:52:47.769Z,2.20
2019-04-27T19:58:11.921Z,2.20
2019-04-27T20:03:45.608Z,1.77
2019-04-27T20:09:24.185Z,1.80
2019-04-27T20:14:57.524Z,1.90
2019-04-27T20:20:21.933Z,1.70
2019-04-27T20:25:46.060Z,1.53
2019-04-27T20:31:10.947Z,1.87
2019-04-27T20:36:35.560Z,1.67
2019-04-27T20:41:59.768Z,1.57
2019-04-27T20:47:23.924Z,2.20
2019-04-27T20:52:57.298Z,1.90
2019-04-27T20:58:21.796Z,1.83
2019-04-27T21:03:52.708Z,1.93
2019-04-27T21:09:18.869Z,2.33
2019-04-27T21:14:43.331Z,2.70
2019-04-27T21:20:08.737Z,2.60
2019-04-27T21:25:33.812Z,2.73
2019-04-27T21:30:58.160Z,2.73
2019-04-27T21:36:21.875Z,3.40
2019-04-27T21:41:46.800Z,3.20
2019-04-27T21:47:14.263Z,3.00
2019-04-27T21:52:41.956Z,4.17
2019-04-27T21:58:05.921Z,2.73
2019-04-27T22:03:31.803Z,3.00
2019-04-27T22:08:55.731Z,2.70
2019-04-27T22:14:21.596Z,2.83
2019-04-27T22:19:46.734Z,3.07
2019-04-27T22:25:11.806Z,3.13
2019-04-27T22:30:37.190Z,3.10
2019-04-27T22:36:01.924Z,3.07
2019-04-27T22:41:44.563Z,3.10
2019-04-27T22:47:08.635Z,3.27
2019-04-27T22:52:33.752Z,3.40
2019-04-27T22:58:04.431Z,3.07
2019-04-27T23:03:32.117Z,3.50
2019-04-27T23:08:55.987Z,3.47
2019-04-27T23:14:21.174Z,3.90
2019-04-27T23:19:44.659Z,3.80
2019-04-27T23:25:11.258Z,3.47
2019-04-27T23:30:52.004Z,4.17
2019-04-27T23:36:15.603Z,3.70
2019-04-27T23:41:39.475Z,3.30
2019-04-27T23:47:03.311Z,4.13
2019-04-27T23:52:46.232Z,4.10
2019-04-27T23:58:10.628Z,4.13
